sensor_id;sensor_type;location;lat;lon;timestamp;P1;durP1;ratioP1;P2;durP2;ratioP2
12155;SDS011;6141;49.092;8.516;2024-01-07T00:00:35;21.10;;;18.07;;
12155;SDS011;6141;49.092;8.516;2024-01-07T00:03:23;16.17;;;14.40;;
12155;SDS011;6141;49.092;8.516;2024-01-07T00:06:12;18.03;;;15.40;;
12155;SDS011;6141;49.092;8.516;2024-01-07T00:09:01;18.97;;;16.30;;
12155;SDS011;6141;49.092;8.516;2024-01-07T00:11:51;19.00;;;16.07;;
12155;SDS011;6141;49.092;8.516;2024-01-07T00:14:39;17.57;;;15.53;;
12155;SDS011;6141;49.092;8.516;2024-01-07T00:17:28;18.70;;;16.60;;
12155;SDS011;6141;49.092;8.516;2024-01-07T00:20:16;18.07;;;16.13;;
12155;SDS011;6141;49.092;8.516;2024-01-07T00:23:05;18.37;;;16.47;;
12155;SDS011;6141;49.092;8.516;2024-01-07T00:25:53;18.53;;;16.27;;
12155;SDS011;6141;49.092;8.516;2024-01-07T00:28:44;18.20;;;15.90;;
12155;SDS011;6141;49.092;8.516;2024-01-07T00:31:32;18.43;;;15.53;;
12155;SDS011;6141;49.092;8.516;2024-01-07T00:34:21;20.13;;;17.37;;
12155;SDS011;6141;49.092;8.516;2024-01-07T00:37:10;17.33;;;15.27;;
12155;SDS011;6141;49.092;8.516;2024-01-07T00:39:58;20.03;;;15.80;;
12155;SDS011;6141;49.092;8.516;2024-01-07T00:42:47;18.13;;;15.03;;
12155;SDS011;6141;49.092;8.516;2024-01-07T00:45:37;18.33;;;16.37;;
12155;SDS011;6141;49.092;8.516;2024-01-07T00:48:25;16.93;;;15.07;;
12155;SDS011;6141;49.092;8.516;2024-01-07T00:51:14;17.50;;;15.03;;
12155;SDS011;6141;49.092;8.516;2024-01-07T00:54:03;18.23;;;16.27;;
12155;SDS011;6141;49.092;8.516;2024-01-07T00:56:51;19.30;;;16.10;;
12155;SDS011;6141;49.092;8.516;2024-01-07T00:59:40;22.00;;;16.87;;
12155;SDS011;6141;49.092;8.516;2024-01-07T01:02:30;17.60;;;15.70;;
12155;SDS011;6141;49.092;8.516;2024-01-07T01:05:18;18.03;;;16.03;;
12155;SDS011;6141;49.092;8.516;2024-01-07T01:08:07;20.23;;;16.53;;
12155;SDS011;6141;49.092;8.516;2024-01-07T01:10:55;19.90;;;16.40;;
12155;SDS011;6141;49.092;8.516;2024-01-07T01:13:44;16.90;;;15.10;;
12155;SDS011;6141;49.092;8.516;2024-01-07T01:16:32;20.47;;;16.30;;
12155;SDS011;6141;49.092;8.516;2024-01-07T01:19:23;23.50;;;18.50;;
12155;SDS011;6141;49.092;8.516;2024-01-07T01:22:12;18.57;;;15.73;;
12155;SDS011;6141;49.092;8.516;2024-01-07T01:25:00;20.90;;;17.07;;
12155;SDS011;6141;49.092;8.516;2024-01-07T01:27:50;17.80;;;15.87;;
12155;SDS011;6141;49.092;8.516;2024-01-07T01:30:38;22.97;;;18.07;;
12155;SDS011;6141;49.092;8.516;2024-01-07T01:33:28;22.87;;;19.23;;
12155;SDS011;6141;49.092;8.516;2024-01-07T01:36:18;21.23;;;17.20;;
12155;SDS011;6141;49.092;8.516;2024-01-07T01:39:06;19.30;;;16.83;;
12155;SDS011;6141;49.092;8.516;2024-01-07T01:41:55;20.77;;;17.50;;
12155;SDS011;6141;49.092;8.516;2024-01-07T01:44:45;19.67;;;16.83;;
12155;SDS011;6141;49.092;8.516;2024-01-07T01:47:34;21.93;;;17.93;;
12155;SDS011;6141;49.092;8.516;2024-01-07T01:50:22;26.90;;;21.10;;
12155;SDS011;6141;49.092;8.516;2024-01-07T01:53:13;18.27;;;16.23;;
12155;SDS011;6141;49.092;8.516;2024-01-07T01:56:02;24.37;;;19.63;;
12155;SDS011;6141;49.092;8.516;2024-01-07T01:58:51;17.10;;;15.27;;
12155;SDS011;6141;49.092;8.516;2024-01-07T02:01:39;18.67;;;16.43;;
12155;SDS011;6141;49.092;8.516;2024-01-07T02:04:28;20.97;;;17.23;;
12155;SDS011;6141;49.092;8.516;2024-01-07T02:07:17;21.60;;;17.90;;
12155;SDS011;6141;49.092;8.516;2024-01-07T02:10:07;21.00;;;17.47;;
12155;SDS011;6141;49.092;8.516;2024-01-07T02:12:57;20.83;;;15.97;;
12155;SDS011;6141;49.092;8.516;2024-01-07T02:15:46;19.43;;;16.57;;
12155;SDS011;6141;49.092;8.516;2024-01-07T02:18:35;18.80;;;16.03;;
12155;SDS011;6141;49.092;8.516;2024-01-07T02:21:24;19.20;;;16.00;;
12155;SDS011;6141;49.092;8.516;2024-01-07T02:24:16;21.67;;;17.23;;
12155;SDS011;6141;49.092;8.516;2024-01-07T02:27:05;21.87;;;16.57;;
12155;SDS011;6141;49.092;8.516;2024-01-07T02:29:53;17.33;;;15.47;;
12155;SDS011;6141;49.092;8.516;2024-01-07T02:32:43;16.83;;;15.07;;
12155;SDS011;6141;49.092;8.516;2024-01-07T02:35:31;20.37;;;16.37;;
12155;SDS011;6141;49.092;8.516;2024-01-07T02:38:20;19.80;;;16.13;;
12155;SDS011;6141;49.092;8.516;2024-01-07T02:41:10;18.77;;;15.27;;
12155;SDS011;6141;49.092;8.516;2024-01-07T02:43:58;23.07;;;17.70;;
12155;SDS011;6141;49.092;8.516;2024-01-07T02:46:46;18.00;;;14.70;;
12155;SDS011;6141;49.092;8.516;2024-01-07T02:49:35;18.00;;;14.40;;
12155;SDS011;6141;49.092;8.516;2024-01-07T02:52:23;19.60;;;16.00;;
12155;SDS011;6141;49.092;8.516;2024-01-07T02:55:12;18.87;;;14.13;;
12155;SDS011;6141;49.092;8.516;2024-01-07T02:58:02;17.13;;;13.83;;
12155;SDS011;6141;49.092;8.516;2024-01-07T03:00:51;17.80;;;14.27;;
12155;SDS011;6141;49.092;8.516;2024-01-07T03:03:39;18.20;;;14.70;;
12155;SDS011;6141;49.092;8.516;2024-01-07T03:06:28;17.43;;;14.50;;
12155;SDS011;6141;49.092;8.516;2024-01-07T03:09:16;16.77;;;12.57;;
12155;SDS011;6141;49.092;8.516;2024-01-07T03:12:05;18.07;;;13.70;;
12155;SDS011;6141;49.092;8.516;2024-01-07T03:14:55;17.10;;;12.43;;
12155;SDS011;6141;49.092;8.516;2024-01-07T03:17:44;18.67;;;14.13;;
12155;SDS011;6141;49.092;8.516;2024-01-07T03:20:32;18.23;;;13.27;;
12155;SDS011;6141;49.092;8.516;2024-01-07T03:23:24;17.37;;;13.60;;
12155;SDS011;6141;49.092;8.516;2024-01-07T03:26:13;17.50;;;12.97;;
12155;SDS011;6141;49.092;8.516;2024-01-07T03:29:01;15.57;;;12.43;;
12155;SDS011;6141;49.092;8.516;2024-01-07T03:31:51;17.07;;;12.30;;
12155;SDS011;6141;49.092;8.516;2024-01-07T03:34:40;14.83;;;11.53;;
12155;SDS011;6141;49.092;8.516;2024-01-07T03:37:29;14.90;;;11.43;;
12155;SDS011;6141;49.092;8.516;2024-01-07T03:40:17;15.27;;;12.20;;
12155;SDS011;6141;49.092;8.516;2024-01-07T03:43:06;15.27;;;11.53;;
12155;SDS011;6141;49.092;8.516;2024-01-07T03:45:55;14.50;;;11.70;;
12155;SDS011;6141;49.092;8.516;2024-01-07T03:48:45;15.17;;;11.80;;
12155;SDS011;6141;49.092;8.516;2024-01-07T03:51:33;14.27;;;11.87;;
12155;SDS011;6141;49.092;8.516;2024-01-07T03:54:22;14.30;;;10.90;;
12155;SDS011;6141;49.092;8.516;2024-01-07T03:57:10;15.77;;;11.67;;
12155;SDS011;6141;49.092;8.516;2024-01-07T04:00:00;12.43;;;10.03;;
12155;SDS011;6141;49.092;8.516;2024-01-07T04:02:50;15.77;;;10.87;;
12155;SDS011;6141;49.092;8.516;2024-01-07T04:05:40;18.37;;;11.70;;
12155;SDS011;6141;49.092;8.516;2024-01-07T04:08:28;11.43;;;10.07;;
12155;SDS011;6141;49.092;8.516;2024-01-07T04:11:17;13.43;;;11.20;;
12155;SDS011;6141;49.092;8.516;2024-01-07T04:14:05;13.73;;;10.83;;
12155;SDS011;6141;49.092;8.516;2024-01-07T04:16:54;11.87;;;10.67;;
12155;SDS011;6141;49.092;8.516;2024-01-07T04:19:42;13.23;;;11.33;;
12155;SDS011;6141;49.092;8.516;2024-01-07T04:22:32;14.83;;;11.50;;
12155;SDS011;6141;49.092;8.516;2024-01-07T04:25:20;11.43;;;10.00;;
12155;SDS011;6141;49.092;8.516;2024-01-07T04:28:09;12.90;;;11.47;;
12155;SDS011;6141;49.092;8.516;2024-01-07T04:30:58;13.13;;;10.47;;
12155;SDS011;6141;49.092;8.516;2024-01-07T04:33:46;13.00;;;10.90;;
12155;SDS011;6141;49.092;8.516;2024-01-07T04:36:35;11.37;;;10.10;;
12155;SDS011;6141;49.092;8.516;2024-01-07T04:39:25;11.97;;;9.63;;
12155;SDS011;6141;49.092;8.516;2024-01-07T04:42:14;11.43;;;9.43;;
12155;SDS011;6141;49.092;8.516;2024-01-07T04:45:03;13.47;;;10.60;;
12155;SDS011;6141;49.092;8.516;2024-01-07T04:47:52;11.87;;;9.97;;
12155;SDS011;6141;49.092;8.516;2024-01-07T04:50:40;12.30;;;10.03;;
12155;SDS011;6141;49.092;8.516;2024-01-07T04:53:29;13.90;;;10.13;;
12155;SDS011;6141;49.092;8.516;2024-01-07T04:56:19;14.87;;;12.20;;
12155;SDS011;6141;49.092;8.516;2024-01-07T04:59:08;13.60;;;11.47;;
12155;SDS011;6141;49.092;8.516;2024-01-07T05:01:56;13.53;;;10.27;;
12155;SDS011;6141;49.092;8.516;2024-01-07T05:04:45;11.50;;;9.57;;
12155;SDS011;6141;49.092;8.516;2024-01-07T05:07:33;10.30;;;9.23;;
12155;SDS011;6141;49.092;8.516;2024-01-07T05:10:22;11.80;;;10.43;;
12155;SDS011;6141;49.092;8.516;2024-01-07T05:13:12;10.47;;;9.30;;
12155;SDS011;6141;49.092;8.516;2024-01-07T05:16:00;10.83;;;9.57;;
12155;SDS011;6141;49.092;8.516;2024-01-07T05:18:49;10.90;;;8.73;;
12155;SDS011;6141;49.092;8.516;2024-01-07T05:21:38;11.23;;;9.97;;
12155;SDS011;6141;49.092;8.516;2024-01-07T05:24:27;11.60;;;9.97;;
12155;SDS011;6141;49.092;8.516;2024-01-07T05:27:20;12.83;;;10.97;;
12155;SDS011;6141;49.092;8.516;2024-01-07T05:30:10;11.37;;;9.73;;
12155;SDS011;6141;49.092;8.516;2024-01-07T05:32:59;10.43;;;9.33;;
12155;SDS011;6141;49.092;8.516;2024-01-07T05:35:48;12.30;;;10.50;;
12155;SDS011;6141;49.092;8.516;2024-01-07T05:38:36;11.23;;;10.03;;
12155;SDS011;6141;49.092;8.516;2024-01-07T05:41:25;13.23;;;11.20;;
12155;SDS011;6141;49.092;8.516;2024-01-07T05:44:13;11.53;;;10.33;;
12155;SDS011;6141;49.092;8.516;2024-01-07T05:47:03;10.23;;;9.20;;
12155;SDS011;6141;49.092;8.516;2024-01-07T05:49:52;12.53;;;11.23;;
12155;SDS011;6141;49.092;8.516;2024-01-07T05:52:41;14.73;;;13.00;;
12155;SDS011;6141;49.092;8.516;2024-01-07T05:55:31;12.27;;;10.93;;
12155;SDS011;6141;49.092;8.516;2024-01-07T05:58:19;13.03;;;10.90;;
12155;SDS011;6141;49.092;8.516;2024-01-07T06:01:08;12.53;;;11.20;;
12155;SDS011;6141;49.092;8.516;2024-01-07T06:03:58;13.00;;;11.60;;
12155;SDS011;6141;49.092;8.516;2024-01-07T06:06:47;11.83;;;10.63;;
12155;SDS011;6141;49.092;8.516;2024-01-07T06:09:39;11.63;;;10.43;;
12155;SDS011;6141;49.092;8.516;2024-01-07T06:12:28;10.97;;;9.87;;
12155;SDS011;6141;49.092;8.516;2024-01-07T06:15:17;14.07;;;11.53;;
12155;SDS011;6141;49.092;8.516;2024-01-07T06:18:06;13.83;;;12.33;;
12155;SDS011;6141;49.092;8.516;2024-01-07T06:20:56;12.53;;;10.93;;
12155;SDS011;6141;49.092;8.516;2024-01-07T06:23:44;13.33;;;11.67;;
12155;SDS011;6141;49.092;8.516;2024-01-07T06:26:33;13.23;;;11.63;;
12155;SDS011;6141;49.092;8.516;2024-01-07T06:29:22;14.80;;;11.27;;
12155;SDS011;6141;49.092;8.516;2024-01-07T06:32:10;12.67;;;11.23;;
12155;SDS011;6141;49.092;8.516;2024-01-07T06:34:59;12.43;;;10.93;;
12155;SDS011;6141;49.092;8.516;2024-01-07T06:37:52;11.67;;;10.17;;
12155;SDS011;6141;49.092;8.516;2024-01-07T06:40:41;12.77;;;10.63;;
12155;SDS011;6141;49.092;8.516;2024-01-07T06:43:29;11.33;;;10.13;;
12155;SDS011;6141;49.092;8.516;2024-01-07T06:46:19;11.70;;;10.40;;
12155;SDS011;6141;49.092;8.516;2024-01-07T06:49:08;11.80;;;10.13;;
12155;SDS011;6141;49.092;8.516;2024-01-07T06:51:56;11.70;;;10.53;;
12155;SDS011;6141;49.092;8.516;2024-01-07T06:54:46;12.07;;;10.80;;
12155;SDS011;6141;49.092;8.516;2024-01-07T06:57:39;11.80;;;9.57;;
12155;SDS011;6141;49.092;8.516;2024-01-07T07:00:27;10.07;;;9.07;;
12155;SDS011;6141;49.092;8.516;2024-01-07T07:03:16;9.87;;;8.87;;
12155;SDS011;6141;49.092;8.516;2024-01-07T07:06:05;11.93;;;10.67;;
12155;SDS011;6141;49.092;8.516;2024-01-07T07:08:53;11.63;;;9.50;;
12155;SDS011;6141;49.092;8.516;2024-01-07T07:11:43;10.47;;;9.37;;
12155;SDS011;6141;49.092;8.516;2024-01-07T07:14:31;10.10;;;9.00;;
12155;SDS011;6141;49.092;8.516;2024-01-07T07:17:20;11.63;;;9.77;;
12155;SDS011;6141;49.092;8.516;2024-01-07T07:20:09;12.50;;;8.60;;
12155;SDS011;6141;49.092;8.516;2024-01-07T07:22:59;13.10;;;9.90;;
12155;SDS011;6141;49.092;8.516;2024-01-07T07:25:47;13.80;;;10.20;;
12155;SDS011;6141;49.092;8.516;2024-01-07T07:28:37;16.07;;;10.77;;
12155;SDS011;6141;49.092;8.516;2024-01-07T07:31:26;11.73;;;9.23;;
12155;SDS011;6141;49.092;8.516;2024-01-07T07:34:15;15.13;;;11.53;;
12155;SDS011;6141;49.092;8.516;2024-01-07T07:37:03;15.40;;;10.63;;
12155;SDS011;6141;49.092;8.516;2024-01-07T07:39:52;13.57;;;10.57;;
12155;SDS011;6141;49.092;8.516;2024-01-07T07:42:41;16.43;;;11.83;;
12155;SDS011;6141;49.092;8.516;2024-01-07T07:45:31;13.97;;;10.67;;
12155;SDS011;6141;49.092;8.516;2024-01-07T07:48:20;18.47;;;12.47;;
12155;SDS011;6141;49.092;8.516;2024-01-07T07:51:08;15.93;;;12.90;;
12155;SDS011;6141;49.092;8.516;2024-01-07T07:53:57;14.30;;;12.00;;
12155;SDS011;6141;49.092;8.516;2024-01-07T07:56:45;16.03;;;11.57;;
12155;SDS011;6141;49.092;8.516;2024-01-07T07:59:34;16.17;;;11.83;;
12155;SDS011;6141;49.092;8.516;2024-01-07T08:02:24;15.43;;;10.90;;
12155;SDS011;6141;49.092;8.516;2024-01-07T08:05:13;14.07;;;11.00;;
12155;SDS011;6141;49.092;8.516;2024-01-07T08:08:02;16.73;;;11.80;;
12155;SDS011;6141;49.092;8.516;2024-01-07T08:10:50;14.37;;;10.30;;
12155;SDS011;6141;49.092;8.516;2024-01-07T08:13:39;14.13;;;10.70;;
12155;SDS011;6141;49.092;8.516;2024-01-07T08:16:28;15.93;;;12.33;;
12155;SDS011;6141;49.092;8.516;2024-01-07T08:19:17;15.87;;;12.20;;
12155;SDS011;6141;49.092;8.516;2024-01-07T08:22:07;12.60;;;9.30;;
12155;SDS011;6141;49.092;8.516;2024-01-07T08:24:56;21.53;;;13.57;;
12155;SDS011;6141;49.092;8.516;2024-01-07T08:27:45;20.67;;;15.87;;
12155;SDS011;6141;49.092;8.516;2024-01-07T08:30:37;15.67;;;13.37;;
12155;SDS011;6141;49.092;8.516;2024-01-07T08:33:28;18.30;;;14.13;;
12155;SDS011;6141;49.092;8.516;2024-01-07T08:36:22;15.67;;;12.00;;
12155;SDS011;6141;49.092;8.516;2024-01-07T08:39:10;17.90;;;13.87;;
12155;SDS011;6141;49.092;8.516;2024-01-07T08:41:59;14.37;;;12.53;;
12155;SDS011;6141;49.092;8.516;2024-01-07T08:44:47;14.27;;;12.03;;
12155;SDS011;6141;49.092;8.516;2024-01-07T08:47:36;15.13;;;12.60;;
12155;SDS011;6141;49.092;8.516;2024-01-07T08:50:30;15.90;;;12.63;;
12155;SDS011;6141;49.092;8.516;2024-01-07T08:53:20;16.33;;;14.40;;
12155;SDS011;6141;49.092;8.516;2024-01-07T08:56:09;18.47;;;13.83;;
12155;SDS011;6141;49.092;8.516;2024-01-07T08:58:57;16.50;;;14.53;;
12155;SDS011;6141;49.092;8.516;2024-01-07T09:01:46;18.30;;;15.27;;
12155;SDS011;6141;49.092;8.516;2024-01-07T09:04:35;16.17;;;13.40;;
12155;SDS011;6141;49.092;8.516;2024-01-07T09:07:25;16.23;;;13.67;;
12155;SDS011;6141;49.092;8.516;2024-01-07T09:10:14;17.53;;;13.87;;
12155;SDS011;6141;49.092;8.516;2024-01-07T09:13:04;21.03;;;14.87;;
12155;SDS011;6141;49.092;8.516;2024-01-07T09:15:53;15.70;;;13.67;;
12155;SDS011;6141;49.092;8.516;2024-01-07T09:18:42;16.97;;;14.53;;
12155;SDS011;6141;49.092;8.516;2024-01-07T09:21:32;18.90;;;13.63;;
12155;SDS011;6141;49.092;8.516;2024-01-07T09:24:21;16.00;;;13.03;;
12155;SDS011;6141;49.092;8.516;2024-01-07T09:27:11;16.33;;;13.50;;
12155;SDS011;6141;49.092;8.516;2024-01-07T09:29:59;16.50;;;13.00;;
12155;SDS011;6141;49.092;8.516;2024-01-07T09:32:48;16.20;;;14.30;;
12155;SDS011;6141;49.092;8.516;2024-01-07T09:35:37;15.97;;;14.17;;
12155;SDS011;6141;49.092;8.516;2024-01-07T09:38:25;16.53;;;13.73;;
12155;SDS011;6141;49.092;8.516;2024-01-07T09:41:14;16.80;;;14.10;;
12155;SDS011;6141;49.092;8.516;2024-01-07T09:44:04;15.87;;;14.20;;
12155;SDS011;6141;49.092;8.516;2024-01-07T09:46:54;15.40;;;13.40;;
12155;SDS011;6141;49.092;8.516;2024-01-07T09:49:44;15.87;;;13.83;;
12155;SDS011;6141;49.092;8.516;2024-01-07T09:52:33;16.77;;;14.33;;
12155;SDS011;6141;49.092;8.516;2024-01-07T09:55:22;15.00;;;12.53;;
12155;SDS011;6141;49.092;8.516;2024-01-07T09:58:15;15.53;;;12.33;;
12155;SDS011;6141;49.092;8.516;2024-01-07T10:01:06;14.30;;;12.77;;
12155;SDS011;6141;49.092;8.516;2024-01-07T10:03:55;12.93;;;11.63;;
12155;SDS011;6141;49.092;8.516;2024-01-07T10:06:44;13.50;;;12.10;;
12155;SDS011;6141;49.092;8.516;2024-01-07T10:09:32;10.23;;;9.23;;
12155;SDS011;6141;49.092;8.516;2024-01-07T10:12:22;10.10;;;9.00;;
12155;SDS011;6141;49.092;8.516;2024-01-07T10:15:10;6.53;;;5.93;;
12155;SDS011;6141;49.092;8.516;2024-01-07T10:18:03;6.80;;;6.20;;
12155;SDS011;6141;49.092;8.516;2024-01-07T10:20:53;7.77;;;7.00;;
12155;SDS011;6141;49.092;8.516;2024-01-07T10:23:42;7.10;;;6.40;;
12155;SDS011;6141;49.092;8.516;2024-01-07T10:26:30;6.03;;;5.43;;
12155;SDS011;6141;49.092;8.516;2024-01-07T10:29:21;6.07;;;5.20;;
12155;SDS011;6141;49.092;8.516;2024-01-07T10:32:10;5.80;;;5.20;;
12155;SDS011;6141;49.092;8.516;2024-01-07T10:35:02;6.70;;;6.00;;
12155;SDS011;6141;49.092;8.516;2024-01-07T10:37:52;6.37;;;5.73;;
12155;SDS011;6141;49.092;8.516;2024-01-07T10:40:40;5.93;;;5.33;;
12155;SDS011;6141;49.092;8.516;2024-01-07T10:43:33;5.50;;;4.87;;
12155;SDS011;6141;49.092;8.516;2024-01-07T10:46:27;6.07;;;5.47;;
12155;SDS011;6141;49.092;8.516;2024-01-07T10:49:19;5.53;;;5.03;;
12155;SDS011;6141;49.092;8.516;2024-01-07T10:52:10;6.07;;;5.10;;
12155;SDS011;6141;49.092;8.516;2024-01-07T10:55:01;6.10;;;5.50;;
12155;SDS011;6141;49.092;8.516;2024-01-07T10:57:57;5.87;;;5.27;;
12155;SDS011;6141;49.092;8.516;2024-01-07T11:00:47;5.43;;;4.93;;
12155;SDS011;6141;49.092;8.516;2024-01-07T11:03:38;4.40;;;4.00;;
12155;SDS011;6141;49.092;8.516;2024-01-07T11:06:36;4.50;;;4.10;;
12155;SDS011;6141;49.092;8.516;2024-01-07T11:09:33;4.73;;;4.27;;
12155;SDS011;6141;49.092;8.516;2024-01-07T11:12:25;4.87;;;4.47;;
12155;SDS011;6141;49.092;8.516;2024-01-07T11:15:25;4.37;;;3.97;;
12155;SDS011;6141;49.092;8.516;2024-01-07T11:18:39;4.77;;;4.33;;
12155;SDS011;6141;49.092;8.516;2024-01-07T11:21:36;4.83;;;4.43;;
12155;SDS011;6141;49.092;8.516;2024-01-07T11:24:38;5.27;;;4.77;;
12155;SDS011;6141;49.092;8.516;2024-01-07T11:27:29;5.30;;;4.80;;
12155;SDS011;6141;49.092;8.516;2024-01-07T11:30:19;9.80;;;4.70;;
12155;SDS011;6141;49.092;8.516;2024-01-07T11:33:08;6.13;;;4.77;;
12155;SDS011;6141;49.092;8.516;2024-01-07T11:36:01;5.43;;;4.93;;
12155;SDS011;6141;49.092;8.516;2024-01-07T11:38:52;5.47;;;4.97;;
12155;SDS011;6141;49.092;8.516;2024-01-07T11:41:45;6.33;;;4.93;;
12155;SDS011;6141;49.092;8.516;2024-01-07T11:44:34;5.80;;;5.10;;
12155;SDS011;6141;49.092;8.516;2024-01-07T11:47:25;6.63;;;6.03;;
12155;SDS011;6141;49.092;8.516;2024-01-07T11:50:15;5.37;;;4.87;;
12155;SDS011;6141;49.092;8.516;2024-01-07T11:53:03;4.90;;;4.50;;
12155;SDS011;6141;49.092;8.516;2024-01-07T11:55:52;4.97;;;4.40;;
12155;SDS011;6141;49.092;8.516;2024-01-07T11:58:42;5.00;;;4.50;;
12155;SDS011;6141;49.092;8.516;2024-01-07T12:01:31;5.37;;;4.10;;
12155;SDS011;6141;49.092;8.516;2024-01-07T12:04:20;4.80;;;3.80;;
12155;SDS011;6141;49.092;8.516;2024-01-07T12:07:08;4.40;;;4.00;;
12155;SDS011;6141;49.092;8.516;2024-01-07T12:10:01;4.20;;;3.80;;
12155;SDS011;6141;49.092;8.516;2024-01-07T12:12:50;5.23;;;4.20;;
12155;SDS011;6141;49.092;8.516;2024-01-07T12:15:41;4.43;;;4.03;;
12155;SDS011;6141;49.092;8.516;2024-01-07T12:18:30;5.10;;;4.60;;
12155;SDS011;6141;49.092;8.516;2024-01-07T12:21:19;5.33;;;4.83;;
12155;SDS011;6141;49.092;8.516;2024-01-07T12:24:09;5.20;;;4.70;;
12155;SDS011;6141;49.092;8.516;2024-01-07T12:27:03;4.83;;;4.43;;
12155;SDS011;6141;49.092;8.516;2024-01-07T12:29:54;4.90;;;4.40;;
12155;SDS011;6141;49.092;8.516;2024-01-07T12:32:44;4.43;;;4.03;;
12155;SDS011;6141;49.092;8.516;2024-01-07T12:35:33;3.90;;;3.60;;
12155;SDS011;6141;49.092;8.516;2024-01-07T12:38:23;5.20;;;4.70;;
12155;SDS011;6141;49.092;8.516;2024-01-07T12:41:11;5.17;;;4.67;;
12155;SDS011;6141;49.092;8.516;2024-01-07T12:44:00;5.50;;;5.00;;
12155;SDS011;6141;49.092;8.516;2024-01-07T12:46:48;4.90;;;4.50;;
12155;SDS011;6141;49.092;8.516;2024-01-07T12:49:40;5.70;;;5.10;;
12155;SDS011;6141;49.092;8.516;2024-01-07T12:52:29;5.80;;;5.20;;
12155;SDS011;6141;49.092;8.516;2024-01-07T12:55:17;5.90;;;4.97;;
12155;SDS011;6141;49.092;8.516;2024-01-07T12:58:06;6.43;;;5.73;;
12155;SDS011;6141;49.092;8.516;2024-01-07T13:00:55;6.20;;;5.63;;
12155;SDS011;6141;49.092;8.516;2024-01-07T13:03:44;5.50;;;5.00;;
12155;SDS011;6141;49.092;8.516;2024-01-07T13:06:34;5.47;;;4.97;;
12155;SDS011;6141;49.092;8.516;2024-01-07T13:09:23;5.70;;;5.20;;
12155;SDS011;6141;49.092;8.516;2024-01-07T13:12:12;5.90;;;5.40;;
12155;SDS011;6141;49.092;8.516;2024-01-07T13:15:00;5.93;;;5.43;;
12155;SDS011;6141;49.092;8.516;2024-01-07T13:17:49;6.30;;;5.70;;
12155;SDS011;6141;49.092;8.516;2024-01-07T13:20:38;5.90;;;5.40;;
12155;SDS011;6141;49.092;8.516;2024-01-07T13:23:30;5.60;;;5.10;;
12155;SDS011;6141;49.092;8.516;2024-01-07T13:26:19;6.57;;;5.97;;
12155;SDS011;6141;49.092;8.516;2024-01-07T13:29:08;6.33;;;5.73;;
12155;SDS011;6141;49.092;8.516;2024-01-07T13:31:57;6.83;;;6.13;;
12155;SDS011;6141;49.092;8.516;2024-01-07T13:34:46;6.83;;;6.23;;
12155;SDS011;6141;49.092;8.516;2024-01-07T13:37:35;6.50;;;5.90;;
12155;SDS011;6141;49.092;8.516;2024-01-07T13:40:26;6.27;;;5.67;;
12155;SDS011;6141;49.092;8.516;2024-01-07T13:43:14;6.33;;;5.73;;
12155;SDS011;6141;49.092;8.516;2024-01-07T13:46:03;6.37;;;5.80;;
12155;SDS011;6141;49.092;8.516;2024-01-07T13:48:52;7.20;;;6.50;;
12155;SDS011;6141;49.092;8.516;2024-01-07T13:51:41;7.63;;;6.83;;
12155;SDS011;6141;49.092;8.516;2024-01-07T13:54:30;7.33;;;6.63;;
12155;SDS011;6141;49.092;8.516;2024-01-07T13:57:20;8.00;;;7.20;;
12155;SDS011;6141;49.092;8.516;2024-01-07T14:00:09;7.83;;;6.83;;
12155;SDS011;6141;49.092;8.516;2024-01-07T14:03:05;7.53;;;6.80;;
12155;SDS011;6141;49.092;8.516;2024-01-07T14:05:53;6.60;;;6.00;;
12155;SDS011;6141;49.092;8.516;2024-01-07T14:08:42;6.90;;;6.20;;
12155;SDS011;6141;49.092;8.516;2024-01-07T14:11:30;6.90;;;6.30;;
12155;SDS011;6141;49.092;8.516;2024-01-07T14:14:20;7.10;;;6.30;;
12155;SDS011;6141;49.092;8.516;2024-01-07T14:17:09;6.60;;;5.73;;
12155;SDS011;6141;49.092;8.516;2024-01-07T14:19:38;6.90;;;6.20;;
12155;SDS011;6141;49.092;8.516;2024-01-07T14:22:06;6.97;;;6.37;;
12155;SDS011;6141;49.092;8.516;2024-01-07T14:24:35;7.30;;;6.00;;
12155;SDS011;6141;49.092;8.516;2024-01-07T14:27:03;7.53;;;6.83;;
12155;SDS011;6141;49.092;8.516;2024-01-07T14:29:33;6.97;;;6.27;;
12155;SDS011;6141;49.092;8.516;2024-01-07T14:32:01;8.03;;;7.30;;
12155;SDS011;6141;49.092;8.516;2024-01-07T14:34:31;8.27;;;7.37;;
12155;SDS011;6141;49.092;8.516;2024-01-07T14:37:00;7.60;;;6.80;;
12155;SDS011;6141;49.092;8.516;2024-01-07T14:39:28;8.73;;;7.70;;
12155;SDS011;6141;49.092;8.516;2024-01-07T14:41:56;7.47;;;6.70;;
12155;SDS011;6141;49.092;8.516;2024-01-07T14:44:24;7.33;;;6.63;;
12155;SDS011;6141;49.092;8.516;2024-01-07T14:47:11;7.90;;;6.60;;
12155;SDS011;6141;49.092;8.516;2024-01-07T14:49:40;6.73;;;6.07;;
12155;SDS011;6141;49.092;8.516;2024-01-07T14:52:08;7.17;;;6.47;;
12155;SDS011;6141;49.092;8.516;2024-01-07T14:54:37;6.93;;;6.23;;
12155;SDS011;6141;49.092;8.516;2024-01-07T14:57:05;7.50;;;6.80;;
12155;SDS011;6141;49.092;8.516;2024-01-07T14:59:36;6.20;;;5.63;;
12155;SDS011;6141;49.092;8.516;2024-01-07T15:02:24;7.77;;;6.70;;
12155;SDS011;6141;49.092;8.516;2024-01-07T15:05:12;6.60;;;5.97;;
12155;SDS011;6141;49.092;8.516;2024-01-07T15:08:01;7.30;;;6.20;;
12155;SDS011;6141;49.092;8.516;2024-01-07T15:10:50;6.90;;;6.20;;
12155;SDS011;6141;49.092;8.516;2024-01-07T15:13:38;5.73;;;4.93;;
12155;SDS011;6141;49.092;8.516;2024-01-07T15:16:27;7.27;;;6.30;;
12155;SDS011;6141;49.092;8.516;2024-01-07T15:19:17;6.30;;;5.70;;
12155;SDS011;6141;49.092;8.516;2024-01-07T15:22:05;6.77;;;6.07;;
12155;SDS011;6141;49.092;8.516;2024-01-07T15:24:54;7.37;;;6.20;;
12155;SDS011;6141;49.092;8.516;2024-01-07T15:27:42;6.83;;;6.17;;
12155;SDS011;6141;49.092;8.516;2024-01-07T15:30:31;8.17;;;6.90;;
12155;SDS011;6141;49.092;8.516;2024-01-07T15:33:20;8.67;;;7.60;;
12155;SDS011;6141;49.092;8.516;2024-01-07T15:36:10;9.17;;;8.17;;
12155;SDS011;6141;49.092;8.516;2024-01-07T15:38:59;10.40;;;8.60;;
12155;SDS011;6141;49.092;8.516;2024-01-07T15:41:48;8.93;;;8.00;;
12155;SDS011;6141;49.092;8.516;2024-01-07T15:44:36;9.53;;;8.10;;
12155;SDS011;6141;49.092;8.516;2024-01-07T15:47:25;9.57;;;8.53;;
12155;SDS011;6141;49.092;8.516;2024-01-07T15:50:14;9.77;;;8.40;;
12155;SDS011;6141;49.092;8.516;2024-01-07T15:53:04;9.20;;;7.60;;
12155;SDS011;6141;49.092;8.516;2024-01-07T15:55:54;8.50;;;7.57;;
12155;SDS011;6141;49.092;8.516;2024-01-07T15:58:43;9.37;;;8.37;;
12155;SDS011;6141;49.092;8.516;2024-01-07T16:01:31;10.40;;;9.17;;
12155;SDS011;6141;49.092;8.516;2024-01-07T16:04:20;10.23;;;8.87;;
12155;SDS011;6141;49.092;8.516;2024-01-07T16:07:10;9.40;;;8.40;;
12155;SDS011;6141;49.092;8.516;2024-01-07T16:10:00;9.30;;;8.30;;
12155;SDS011;6141;49.092;8.516;2024-01-07T16:12:49;9.43;;;8.17;;
12155;SDS011;6141;49.092;8.516;2024-01-07T16:15:37;9.33;;;8.33;;
12155;SDS011;6141;49.092;8.516;2024-01-07T16:18:26;11.53;;;8.70;;
12155;SDS011;6141;49.092;8.516;2024-01-07T16:21:14;11.60;;;8.50;;
12155;SDS011;6141;49.092;8.516;2024-01-07T16:24:07;12.27;;;8.80;;
12155;SDS011;6141;49.092;8.516;2024-01-07T16:26:57;10.53;;;8.10;;
12155;SDS011;6141;49.092;8.516;2024-01-07T16:29:46;10.00;;;8.70;;
12155;SDS011;6141;49.092;8.516;2024-01-07T16:32:34;12.43;;;9.67;;
12155;SDS011;6141;49.092;8.516;2024-01-07T16:35:23;16.73;;;12.20;;
12155;SDS011;6141;49.092;8.516;2024-01-07T16:37:51;10.13;;;9.03;;
12155;SDS011;6141;49.092;8.516;2024-01-07T16:40:19;10.60;;;8.43;;
12155;SDS011;6141;49.092;8.516;2024-01-07T16:42:49;12.13;;;9.57;;
12155;SDS011;6141;49.092;8.516;2024-01-07T16:45:17;10.30;;;8.60;;
12155;SDS011;6141;49.092;8.516;2024-01-07T16:47:46;10.23;;;8.37;;
12155;SDS011;6141;49.092;8.516;2024-01-07T16:50:14;11.67;;;9.00;;